createdAt,value
2022-12-05T00:01:35.105Z,42.90
2022-12-05T00:06:40.241Z,42.10
2022-12-05T00:11:45.236Z,37.80
2022-12-05T00:16:50.247Z,37.00
2022-12-05T00:21:53.750Z,36.15
2022-12-05T00:26:57.359Z,37.25
2022-12-05T00:32:02.080Z,34.90
2022-12-05T00:37:05.717Z,35.97
2022-12-05T00:42:08.972Z,29.77
2022-12-05T00:47:13.936Z,30.10
2022-12-05T00:52:17.522Z,33.80
2022-12-05T00:57:20.835Z,29.60
2022-12-05T01:02:25.524Z,30.83
2022-12-05T01:07:28.838Z,30.25
2022-12-05T01:12:32.133Z,29.92
2022-12-05T01:17:37.082Z,26.40
2022-12-05T01:22:40.341Z,23.67
2022-12-05T01:27:44.222Z,9.73
2022-12-05T01:32:49.318Z,25.20
2022-12-05T01:37:53.264Z,28.70
2022-12-05T01:42:57.089Z,26.58
2022-12-05T01:48:06.715Z,26.65
2022-12-05T01:53:10.137Z,24.85
2022-12-05T01:58:13.452Z,22.30
2022-12-05T02:03:21.196Z,23.27
2022-12-05T02:08:24.819Z,25.33
2022-12-05T02:13:38.603Z,23.48
2022-12-05T02:18:55.102Z,23.43
2022-12-05T02:24:44.492Z,25.23
2022-12-05T02:30:07.941Z,21.10
2022-12-05T02:35:19.932Z,22.67
2022-12-05T02:40:27.876Z,21.60
2022-12-05T02:45:35.237Z,23.15
2022-12-05T02:50:40.430Z,21.00
2022-12-05T02:55:44.994Z,21.67
2022-12-05T03:00:52.229Z,21.25
2022-12-05T03:06:03.900Z,20.70
2022-12-05T03:11:08.120Z,20.02
2022-12-05T03:16:18.316Z,20.40
2022-12-05T03:21:31.697Z,15.27
2022-12-05T03:26:52.128Z,12.25
2022-12-05T03:32:07.158Z,13.40
2022-12-05T03:37:15.208Z,12.23
2022-12-05T03:42:28.772Z,14.10
2022-12-05T03:47:43.527Z,13.38
2022-12-05T03:53:18.502Z,11.95
2022-12-05T03:58:19.101Z,12.70
2022-12-05T04:03:39.136Z,13.25
2022-12-05T04:08:48.664Z,13.20
2022-12-05T04:13:54.238Z,11.30
2022-12-05T04:19:04.730Z,10.27
2022-12-05T04:24:28.632Z,8.90
2022-12-05T04:29:36.079Z,10.20
2022-12-05T04:34:42.082Z,10.13
2022-12-05T04:39:49.992Z,11.23
2022-12-05T04:44:55.203Z,10.90
2022-12-05T04:50:01.610Z,13.88
2022-12-05T04:55:10.043Z,12.05
2022-12-05T05:00:14.025Z,11.17
2022-12-05T05:05:19.900Z,18.33
2022-12-05T05:10:31.808Z,19.92
2022-12-05T05:15:37.268Z,21.98
2022-12-05T05:20:41.990Z,20.07
2022-12-05T05:25:45.631Z,23.98
2022-12-05T05:30:49.324Z,30.02
2022-12-05T05:35:54.026Z,19.17
2022-12-05T05:40:57.675Z,17.08
2022-12-05T05:46:01.346Z,18.73
2022-12-05T05:51:07.571Z,18.95
2022-12-05T05:56:15.968Z,25.20
2022-12-05T06:01:23.666Z,22.40
2022-12-05T06:06:28.798Z,27.85
2022-12-05T06:11:32.212Z,27.42
2022-12-05T06:16:35.745Z,26.57
2022-12-05T06:21:40.659Z,27.48
2022-12-05T06:26:44.248Z,28.95
2022-12-05T06:31:47.679Z,29.85
2022-12-05T06:36:52.759Z,29.98
2022-12-05T06:41:56.318Z,35.15
2022-12-05T06:46:59.778Z,32.85
2022-12-05T06:52:04.693Z,35.27
2022-12-05T06:57:08.036Z,34.60
2022-12-05T07:02:14.004Z,30.25
2022-12-05T07:07:19.040Z,25.07
2022-12-05T07:12:22.653Z,36.73
2022-12-05T07:17:26.283Z,28.40
2022-12-05T07:22:31.231Z,29.70
2022-12-05T07:27:35.297Z,36.33
2022-12-05T07:32:38.873Z,49.35
2022-12-05T07:37:43.679Z,39.38
2022-12-05T07:42:49.830Z,37.38
2022-12-05T07:47:53.457Z,37.33
2022-12-05T07:52:58.275Z,32.47
2022-12-05T07:58:01.822Z,32.67
2022-12-05T08:03:05.452Z,23.80
2022-12-05T08:08:10.640Z,31.80
2022-12-05T08:13:14.298Z,25.13
2022-12-05T08:18:17.860Z,24.48
2022-12-05T08:23:22.529Z,39.78
2022-12-05T08:28:25.809Z,38.67
2022-12-05T08:33:29.370Z,34.70
2022-12-05T08:38:34.847Z,38.00
2022-12-05T08:43:38.425Z,31.43
2022-12-05T08:48:41.702Z,32.60
2022-12-05T08:53:46.397Z,35.20
2022-12-05T08:58:50.037Z,35.58
2022-12-05T09:03:53.599Z,31.30
2022-12-05T09:09:00.398Z,31.45
2022-12-05T09:14:05.228Z,31.97
2022-12-05T09:19:13.194Z,39.22
2022-12-05T09:24:17.905Z,28.13
2022-12-05T09:29:21.178Z,26.77
2022-12-05T09:34:26.075Z,27.67
2022-12-05T09:39:30.800Z,56.80
2022-12-05T09:44:47.044Z,30.30
2022-12-05T09:49:56.076Z,34.07
2022-12-05T09:55:06.282Z,32.00
2022-12-05T10:00:12.697Z,31.08
2022-12-05T10:05:21.004Z,32.35
2022-12-05T10:10:34.937Z,24.92
2022-12-05T10:15:45.867Z,26.30
2022-12-05T10:20:55.703Z,26.35
2022-12-05T10:26:01.837Z,27.05
2022-12-05T10:31:09.060Z,28.27
2022-12-05T10:36:13.726Z,25.88
2022-12-05T10:41:19.012Z,24.75
2022-12-05T10:46:22.318Z,21.65
2022-12-05T10:51:35.633Z,20.10
2022-12-05T10:56:44.977Z,18.15
2022-12-05T11:01:51.116Z,13.67
2022-12-05T11:06:57.364Z,15.52
2022-12-05T11:12:15.637Z,14.70
2022-12-05T11:17:27.611Z,16.90
2022-12-05T11:22:37.359Z,14.95
2022-12-05T11:27:42.341Z,19.13
2022-12-05T11:32:45.724Z,14.10
2022-12-05T11:37:53.401Z,14.32
2022-12-05T11:43:15.332Z,16.33
2022-12-05T11:48:31.793Z,14.27
2022-12-05T11:54:02.566Z,15.98
2022-12-05T11:59:24.065Z,18.23
2022-12-05T12:04:39.404Z,17.50
2022-12-05T12:09:50.933Z,16.27
2022-12-05T12:15:07.250Z,19.17
2022-12-05T12:20:35.113Z,16.88
2022-12-05T12:25:45.776Z,14.87
2022-12-05T12:31:03.712Z,23.98
2022-12-05T12:36:16.916Z,19.38
2022-12-05T12:41:38.441Z,15.27
2022-12-05T12:46:50.676Z,16.67
2022-12-05T12:51:55.982Z,17.77
2022-12-05T12:57:13.337Z,21.13
2022-12-05T13:02:25.632Z,15.35
2022-12-05T13:07:35.875Z,11.43
2022-12-05T13:12:42.479Z,15.32
2022-12-05T13:17:50.149Z,11.70
2022-12-05T13:22:54.560Z,11.25
2022-12-05T13:28:01.799Z,10.90
2022-12-05T13:33:10.203Z,13.20
2022-12-05T13:38:39.698Z,13.30
2022-12-05T13:43:49.357Z,14.20
2022-12-05T13:49:07.006Z,15.40
2022-12-05T13:54:14.447Z,13.50
2022-12-05T13:59:56.980Z,14.27
2022-12-05T14:05:02.552Z,16.93
2022-12-05T14:10:07.081Z,15.67
2022-12-05T14:15:29.880Z,18.30
2022-12-05T14:20:56.655Z,15.73
2022-12-05T14:26:14.563Z,15.07
2022-12-05T14:31:39.616Z,17.40
2022-12-05T14:37:02.574Z,14.48
2022-12-05T14:42:17.310Z,14.55
2022-12-05T14:47:24.042Z,17.87
2022-12-05T14:52:31.641Z,21.45
2022-12-05T14:57:44.886Z,17.73
2022-12-05T15:02:50.966Z,19.65
2022-12-05T15:07:57.628Z,17.80
2022-12-05T15:13:04.624Z,19.73
2022-12-05T15:18:19.324Z,18.20
2022-12-05T15:23:45.069Z,19.75
2022-12-05T15:29:07.919Z,17.48
2022-12-05T15:34:18.949Z,15.98
2022-12-05T15:39:26.542Z,18.17
2022-12-05T15:44:37.416Z,16.03
2022-12-05T15:49:41.476Z,26.77
2022-12-05T15:54:46.997Z,36.50
2022-12-05T15:59:55.259Z,31.70
2022-12-05T16:05:00.487Z,24.13
2022-12-05T16:10:06.257Z,21.90
2022-12-05T16:15:14.351Z,21.70
2022-12-05T16:20:32.128Z,20.50
2022-12-05T16:25:37.952Z,20.05
2022-12-05T16:30:41.251Z,20.13
2022-12-05T16:35:46.641Z,20.48
2022-12-05T16:40:58.119Z,17.35
2022-12-05T16:46:27.837Z,17.77
2022-12-05T16:51:42.168Z,18.20
2022-12-05T16:56:46.957Z,20.67
2022-12-05T17:01:50.305Z,25.83
2022-12-05T17:06:53.615Z,23.35
2022-12-05T17:12:03.575Z,20.57
2022-12-05T17:17:12.649Z,24.83
2022-12-05T17:22:16.774Z,27.42
2022-12-05T17:27:23.104Z,26.00
2022-12-05T17:32:26.366Z,28.80
2022-12-05T17:37:29.632Z,26.63
2022-12-05T17:42:34.285Z,27.88
2022-12-05T17:47:37.641Z,28.65
2022-12-05T17:52:40.996Z,26.60
2022-12-05T17:57:46.743Z,29.58
2022-12-05T18:02:50.651Z,35.67
2022-12-05T18:07:54.564Z,45.08
2022-12-05T18:12:59.326Z,33.33
2022-12-05T18:18:03.884Z,31.88
2022-12-05T18:23:07.134Z,26.67
2022-12-05T18:28:16.335Z,26.58
2022-12-05T18:33:22.777Z,25.87
2022-12-05T18:38:26.142Z,25.02
2022-12-05T18:43:30.827Z,24.92
2022-12-05T18:48:42.737Z,24.70
2022-12-05T18:53:53.212Z,24.17
2022-12-05T18:59:01.956Z,26.17
2022-12-05T19:04:07.641Z,24.65
2022-12-05T19:09:15.451Z,22.75
2022-12-05T19:14:20.985Z,21.67
2022-12-05T19:19:24.604Z,23.25
2022-12-05T19:24:28.814Z,31.35
2022-12-05T19:29:34.628Z,25.50
2022-12-05T19:34:38.188Z,25.35
2022-12-05T19:39:42.811Z,32.30
2022-12-05T19:44:49.413Z,24.37
2022-12-05T19:49:52.728Z,23.98
2022-12-05T19:54:56.083Z,27.48
2022-12-05T20:00:00.963Z,25.95
2022-12-05T20:05:04.732Z,24.55
2022-12-05T20:10:08.625Z,24.87
2022-12-05T20:15:13.466Z,25.10
2022-12-05T20:20:17.136Z,23.58
2022-12-05T20:25:20.588Z,20.27
2022-12-05T20:30:25.600Z,25.38
2022-12-05T20:35:29.578Z,16.08
2022-12-05T20:40:33.768Z,16.77
2022-12-05T20:45:38.662Z,13.18
2022-12-05T20:50:42.483Z,11.73
2022-12-05T20:55:45.811Z,10.83
2022-12-05T21:00:50.526Z,10.67
2022-12-05T21:05:53.835Z,13.90
2022-12-05T21:10:57.133Z,10.53
2022-12-05T21:16:04.984Z,10.50
2022-12-05T21:21:10.484Z,13.27
2022-12-05T21:26:15.425Z,11.27
2022-12-05T21:31:22.887Z,10.70
2022-12-05T21:36:27.515Z,9.80
2022-12-05T21:41:30.810Z,10.53
2022-12-05T21:46:35.912Z,9.50
2022-12-05T21:51:40.052Z,10.07
2022-12-05T21:56:43.533Z,9.25
2022-12-05T22:01:48.286Z,10.07
2022-12-05T22:06:51.625Z,10.23
2022-12-05T22:11:55.138Z,12.02
2022-12-05T22:16:59.826Z,9.90
2022-12-05T22:22:03.208Z,10.35
2022-12-05T22:27:06.542Z,9.02
2022-12-05T22:32:12.029Z,9.50
2022-12-05T22:37:18.376Z,8.57
2022-12-05T22:42:21.710Z,11.35
2022-12-05T22:47:26.370Z,11.18
2022-12-05T22:52:29.669Z,10.52
2022-12-05T22:57:32.976Z,9.35
2022-12-05T23:02:37.787Z,9.57
2022-12-05T23:07:41.307Z,8.40
2022-12-05T23:12:44.910Z,9.38
2022-12-05T23:17:50.519Z,12.17
2022-12-05T23:22:53.945Z,9.70
2022-12-05T23:27:57.356Z,10.63
2022-12-05T23:33:02.144Z,11.43
2022-12-05T23:38:05.561Z,11.40
2022-12-05T23:43:08.982Z,12.93
2022-12-05T23:48:13.819Z,14.55
2022-12-05T23:53:17.406Z,12.38
2022-12-05T23:58:20.846Z,12.95
